createdAt,value
2022-10-30T00:01:37.542Z,2.03
2022-10-30T00:04:04.443Z,1.95
2022-10-30T00:06:31.097Z,1.85
2022-10-30T00:08:57.780Z,1.75
2022-10-30T00:11:24.428Z,2.20
2022-10-30T00:13:51.076Z,2.30
2022-10-30T00:16:18.268Z,2.03
2022-10-30T00:18:45.044Z,1.80
2022-10-30T00:21:14.010Z,2.00
2022-10-30T00:23:48.776Z,1.95
2022-10-30T00:28:42.397Z,1.98
2022-10-30T00:31:09.164Z,1.90
2022-10-30T00:33:35.862Z,2.15
2022-10-30T00:36:02.615Z,1.92
2022-10-30T00:38:29.269Z,1.60
2022-10-30T00:40:55.932Z,2.00
2022-10-30T00:43:41.304Z,1.88
2022-10-30T00:46:28.456Z,1.73
2022-10-30T00:48:59.843Z,1.90
2022-10-30T00:51:28.426Z,1.90
2022-10-30T00:53:56.877Z,1.85
2022-10-30T00:56:23.800Z,2.20
2022-10-30T00:58:57.927Z,2.00
2022-10-30T01:01:27.177Z,1.90
2022-10-30T01:03:57.042Z,1.90
2022-10-30T01:06:24.797Z,2.30
2022-10-30T01:08:56.975Z,1.70
2022-10-30T01:11:26.649Z,1.98
2022-10-30T01:13:54.869Z,2.17
2022-10-30T01:16:40.990Z,2.15
2022-10-30T01:19:10.984Z,1.75
2022-10-30T01:21:57.157Z,2.15
2022-10-30T01:24:29.501Z,1.83
2022-10-30T01:27:33.915Z,2.38
2022-10-30T01:30:27.649Z,1.70
2022-10-30T01:33:24.259Z,1.75
2022-10-30T01:35:53.993Z,2.15
2022-10-30T01:38:35.235Z,2.22
2022-10-30T01:41:01.919Z,2.30
2022-10-30T01:43:28.645Z,1.98
2022-10-30T01:46:28.747Z,1.85
2022-10-30T01:52:14.002Z,2.03
2022-10-30T01:55:10.212Z,2.08
2022-10-30T01:57:47.607Z,1.98
2022-10-30T02:00:16.341Z,2.28
2022-10-30T02:02:43.085Z,2.33
2022-10-30T02:05:11.813Z,2.08
2022-10-30T02:07:38.543Z,2.33
2022-10-30T02:10:05.737Z,1.80
2022-10-30T02:12:32.689Z,2.00
2022-10-30T02:15:00.797Z,2.25
2022-10-30T02:17:28.481Z,2.10
2022-10-30T02:19:55.298Z,2.22
2022-10-30T02:22:22.133Z,2.78
2022-10-30T02:24:48.860Z,2.20
2022-10-30T02:27:15.511Z,2.20
2022-10-30T02:29:42.371Z,1.60
2022-10-30T02:32:09.064Z,2.03
2022-10-30T02:34:36.781Z,2.25
2022-10-30T02:37:03.674Z,1.80
2022-10-30T02:39:30.409Z,1.83
2022-10-30T02:41:57.274Z,1.92
2022-10-30T02:44:23.973Z,2.30
2022-10-30T02:46:50.690Z,2.15
2022-10-30T02:49:17.426Z,1.75
2022-10-30T02:51:44.167Z,1.65
2022-10-30T02:54:10.894Z,1.80
2022-10-30T02:56:39.952Z,2.53
2022-10-30T02:59:06.716Z,1.65
2022-10-30T03:01:33.482Z,2.20
2022-10-30T03:04:00.350Z,2.38
2022-10-30T03:06:27.253Z,1.23
2022-10-30T03:08:53.931Z,2.00
2022-10-30T03:11:21.044Z,2.20
2022-10-30T03:13:48.801Z,2.00
2022-10-30T03:16:20.917Z,2.28
2022-10-30T03:18:49.638Z,1.80
2022-10-30T03:21:18.922Z,1.60
2022-10-30T03:23:45.897Z,1.52
2022-10-30T03:26:12.869Z,2.15
2022-10-30T03:28:39.555Z,2.33
2022-10-30T03:31:09.243Z,1.90
2022-10-30T03:33:36.953Z,2.47
2022-10-30T03:36:05.159Z,1.65
2022-10-30T03:38:32.239Z,1.90
2022-10-30T03:40:59.024Z,1.85
2022-10-30T03:43:26.093Z,1.70
2022-10-30T03:45:55.397Z,1.48
2022-10-30T03:48:24.448Z,1.50
2022-10-30T03:50:55.081Z,1.48
2022-10-30T03:53:23.908Z,1.27
2022-10-30T03:55:51.001Z,1.35
2022-10-30T03:58:17.756Z,1.73
2022-10-30T04:00:44.460Z,1.17
2022-10-30T04:03:11.920Z,1.42
2022-10-30T04:05:38.837Z,1.80
2022-10-30T04:08:09.580Z,1.65
2022-10-30T04:10:36.453Z,1.52
2022-10-30T04:13:05.597Z,2.35
2022-10-30T04:15:32.499Z,1.10
2022-10-30T04:17:59.594Z,1.10
2022-10-30T04:20:26.746Z,0.98
2022-10-30T04:23:05.227Z,1.50
2022-10-30T04:25:33.945Z,1.27
2022-10-30T04:28:01.103Z,1.17
2022-10-30T04:30:27.980Z,1.20
2022-10-30T04:32:56.237Z,1.23
2022-10-30T04:35:27.590Z,1.75
2022-10-30T04:37:55.555Z,1.15
2022-10-30T04:40:23.776Z,1.30
2022-10-30T04:42:50.523Z,1.15
2022-10-30T04:45:17.833Z,1.65
2022-10-30T04:47:44.810Z,0.95
2022-10-30T04:50:12.182Z,0.90
2022-10-30T04:52:39.123Z,1.05
2022-10-30T04:55:06.923Z,1.42
2022-10-30T04:57:34.346Z,1.17
2022-10-30T05:00:01.056Z,1.05
2022-10-30T05:02:27.890Z,1.23
2022-10-30T05:04:54.762Z,1.00
2022-10-30T05:07:21.483Z,1.45
2022-10-30T05:09:48.308Z,0.98
2022-10-30T05:12:16.624Z,0.90
2022-10-30T05:14:43.363Z,0.80
2022-10-30T05:17:10.290Z,0.77
2022-10-30T05:19:36.991Z,1.27
2022-10-30T05:22:04.416Z,0.60
2022-10-30T05:24:31.122Z,1.25
2022-10-30T05:26:57.755Z,0.85
2022-10-30T05:29:24.577Z,1.00
2022-10-30T05:31:51.233Z,1.00
2022-10-30T05:34:17.962Z,1.13
2022-10-30T05:36:44.667Z,1.13
2022-10-30T05:39:11.348Z,0.80
2022-10-30T05:41:38.114Z,0.80
2022-10-30T05:44:04.884Z,0.90
2022-10-30T05:46:31.569Z,0.88
2022-10-30T05:48:58.322Z,0.75
2022-10-30T05:51:25.203Z,1.23
2022-10-30T05:53:51.868Z,1.05
2022-10-30T05:56:18.529Z,0.90
2022-10-30T05:58:45.242Z,1.23
2022-10-30T06:01:11.901Z,0.98
2022-10-30T06:03:38.604Z,0.80
2022-10-30T06:06:05.485Z,0.95
2022-10-30T06:08:32.177Z,0.90
2022-10-30T06:10:58.814Z,1.08
2022-10-30T06:13:25.567Z,0.80
2022-10-30T06:15:56.112Z,0.63
2022-10-30T06:18:23.031Z,1.08
2022-10-30T06:20:49.761Z,0.82
2022-10-30T06:23:16.447Z,0.85
2022-10-30T06:25:43.186Z,1.00
2022-10-30T06:28:11.119Z,0.77
2022-10-30T06:30:38.035Z,0.75
2022-10-30T06:33:05.279Z,0.98
2022-10-30T06:35:32.657Z,0.63
2022-10-30T06:38:02.562Z,1.05
2022-10-30T06:40:30.062Z,0.85
2022-10-30T06:42:58.242Z,0.52
2022-10-30T06:45:25.337Z,0.90
2022-10-30T06:47:52.361Z,0.80
2022-10-30T06:50:20.688Z,0.90
2022-10-30T06:52:48.214Z,0.60
2022-10-30T06:55:15.078Z,0.70
2022-10-30T06:57:41.789Z,0.70
2022-10-30T07:00:09.158Z,0.60
2022-10-30T07:02:35.819Z,0.57
2022-10-30T07:05:02.994Z,0.50
2022-10-30T07:07:30.179Z,0.47
2022-10-30T07:09:56.950Z,0.57
2022-10-30T07:12:23.762Z,0.70
2022-10-30T07:14:50.408Z,0.70
2022-10-30T07:17:17.072Z,0.30
2022-10-30T07:19:44.223Z,0.88
2022-10-30T07:22:10.922Z,0.70
2022-10-30T07:24:37.630Z,0.50
2022-10-30T07:27:04.297Z,0.52
2022-10-30T07:29:31.140Z,0.70
2022-10-30T07:32:02.738Z,0.50
2022-10-30T07:34:34.364Z,0.88
2022-10-30T07:37:01.069Z,1.15
2022-10-30T07:39:27.790Z,0.60
2022-10-30T07:41:54.504Z,0.82
2022-10-30T07:44:21.196Z,0.70
2022-10-30T07:46:47.999Z,1.05
2022-10-30T07:49:14.702Z,0.85
2022-10-30T07:51:41.351Z,1.00
2022-10-30T07:54:08.031Z,0.77
2022-10-30T07:56:34.867Z,0.80
2022-10-30T07:59:01.777Z,0.63
2022-10-30T08:01:28.500Z,0.60
2022-10-30T08:03:55.334Z,0.60
2022-10-30T08:06:24.752Z,0.70
2022-10-30T08:08:53.832Z,0.70
2022-10-30T08:11:20.492Z,0.68
2022-10-30T08:13:47.199Z,0.70
2022-10-30T08:16:14.583Z,0.88
2022-10-30T08:18:42.710Z,0.50
2022-10-30T08:21:09.861Z,1.00
2022-10-30T08:23:36.580Z,0.60
2022-10-30T08:26:03.628Z,0.60
2022-10-30T08:28:32.873Z,0.90
2022-10-30T08:31:00.756Z,0.60
2022-10-30T08:33:27.517Z,0.63
2022-10-30T08:35:57.221Z,0.82
2022-10-30T08:38:24.465Z,0.90
2022-10-30T08:40:51.946Z,1.25
2022-10-30T08:43:18.971Z,1.10
2022-10-30T08:45:45.648Z,1.23
2022-10-30T08:48:14.348Z,0.88
2022-10-30T08:50:41.408Z,1.05
2022-10-30T08:53:12.786Z,1.20
2022-10-30T08:55:39.872Z,1.13
2022-10-30T08:58:06.637Z,1.02
2022-10-30T09:00:34.178Z,0.82
2022-10-30T09:03:01.288Z,0.85
2022-10-30T09:05:28.416Z,1.13
2022-10-30T09:07:59.473Z,1.05
2022-10-30T09:10:27.175Z,1.02
2022-10-30T09:12:57.826Z,0.90
2022-10-30T09:15:25.119Z,1.00
2022-10-30T09:17:59.680Z,0.90
2022-10-30T09:20:28.024Z,1.10
2022-10-30T09:22:58.675Z,2.20
2022-10-30T09:25:26.007Z,1.20
2022-10-30T09:27:52.814Z,0.68
2022-10-30T09:30:20.833Z,0.88
2022-10-30T09:32:55.122Z,1.00
2022-10-30T09:37:48.621Z,0.95
2022-10-30T09:40:46.599Z,0.80
2022-10-30T09:43:24.580Z,0.70
2022-10-30T09:46:14.625Z,0.77
2022-10-30T09:49:04.290Z,1.00
2022-10-30T09:52:08.741Z,0.90
2022-10-30T09:54:53.834Z,0.77
2022-10-30T09:57:25.537Z,1.00
2022-10-30T10:00:03.182Z,0.93
2022-10-30T10:02:36.650Z,1.20
2022-10-30T10:05:28.536Z,1.00
2022-10-30T10:08:04.972Z,0.88
2022-10-30T10:10:48.940Z,1.02
2022-10-30T10:13:38.430Z,0.90
2022-10-30T10:16:17.111Z,0.70
2022-10-30T10:19:01.039Z,0.82
2022-10-30T10:21:29.719Z,0.90
2022-10-30T10:23:59.751Z,0.80
2022-10-30T10:26:50.301Z,1.00
2022-10-30T10:29:32.827Z,0.80
2022-10-30T10:32:27.382Z,1.10
2022-10-30T10:35:21.235Z,0.82
2022-10-30T10:38:00.620Z,0.80
2022-10-30T10:41:04.091Z,1.30
2022-10-30T10:43:52.034Z,0.70
2022-10-30T10:46:56.122Z,1.10
2022-10-30T10:49:47.926Z,0.70
2022-10-30T10:52:33.725Z,0.88
2022-10-30T10:55:04.683Z,0.93
2022-10-30T10:57:39.692Z,0.90
2022-10-30T11:00:10.824Z,0.90
2022-10-30T11:03:05.611Z,0.98
2022-10-30T11:05:36.279Z,0.90
2022-10-30T11:08:24.930Z,0.90
2022-10-30T11:11:02.838Z,0.95
2022-10-30T11:13:38.616Z,0.75
2022-10-30T11:16:27.075Z,0.95
2022-10-30T11:19:00.105Z,0.98
2022-10-30T11:21:28.070Z,1.10
2022-10-30T11:23:55.185Z,1.05
2022-10-30T11:26:27.312Z,1.08
2022-10-30T11:29:00.099Z,0.73
2022-10-30T11:31:35.053Z,0.80
2022-10-30T11:34:15.432Z,0.93
2022-10-30T11:36:42.355Z,1.10
2022-10-30T11:39:21.563Z,0.90
2022-10-30T11:41:57.280Z,1.00
2022-10-30T11:44:42.202Z,0.93
2022-10-30T11:47:10.902Z,0.85
2022-10-30T11:49:46.708Z,0.95
2022-10-30T11:52:19.404Z,1.02
2022-10-30T11:54:50.871Z,1.00
2022-10-30T11:57:37.338Z,1.05
2022-10-30T12:00:15.825Z,1.00
2022-10-30T12:02:44.521Z,1.10
2022-10-30T12:05:35.377Z,1.08
2022-10-30T12:08:08.136Z,1.02
2022-10-30T12:10:41.608Z,0.85
2022-10-30T12:13:16.719Z,0.90
2022-10-30T12:15:44.693Z,0.88
2022-10-30T12:18:21.556Z,1.30
2022-10-30T12:20:52.087Z,0.98
2022-10-30T12:23:22.160Z,0.90
2022-10-30T12:25:50.553Z,1.00
2022-10-30T12:28:27.170Z,0.93
2022-10-30T12:30:57.901Z,1.27
2022-10-30T12:33:50.246Z,0.80
2022-10-30T12:36:23.605Z,0.80
2022-10-30T12:38:52.430Z,1.20
2022-10-30T12:41:43.413Z,0.90
2022-10-30T12:44:41.348Z,1.00
2022-10-30T12:47:26.080Z,1.10
2022-10-30T12:52:41.939Z,0.98
2022-10-30T12:55:15.061Z,0.80
2022-10-30T12:58:05.677Z,0.82
2022-10-30T13:00:39.125Z,1.27
2022-10-30T13:03:17.592Z,0.98
2022-10-30T13:08:37.117Z,1.05
2022-10-30T13:11:27.253Z,1.00
2022-10-30T13:13:54.784Z,1.30
2022-10-30T13:16:31.444Z,1.17
2022-10-30T13:19:01.675Z,1.23
2022-10-30T13:21:37.870Z,1.05
2022-10-30T13:24:25.854Z,1.17
2022-10-30T13:27:41.935Z,1.00
2022-10-30T13:30:21.083Z,1.00
2022-10-30T13:32:56.992Z,0.82
2022-10-30T13:35:47.345Z,0.90
2022-10-30T13:38:32.223Z,0.90
2022-10-30T13:41:11.252Z,1.13
2022-10-30T13:43:46.956Z,0.77
2022-10-30T13:46:34.245Z,0.95
2022-10-30T13:49:27.256Z,1.05
2022-10-30T13:52:20.646Z,0.80
2022-10-30T13:55:02.840Z,0.93
2022-10-30T13:57:42.728Z,1.00
2022-10-30T14:00:16.995Z,0.80
2022-10-30T14:03:11.031Z,1.13
2022-10-30T14:05:48.928Z,0.80
2022-10-30T14:08:25.319Z,0.82
2022-10-30T14:10:57.591Z,0.98
2022-10-30T14:13:29.099Z,0.85
2022-10-30T14:16:12.071Z,1.13
2022-10-30T14:19:07.175Z,1.02
2022-10-30T14:27:04.220Z,0.70
2022-10-30T14:29:36.180Z,0.90
2022-10-30T14:32:14.837Z,0.98
2022-10-30T14:34:45.312Z,0.82
2022-10-30T14:37:12.706Z,0.90
2022-10-30T14:39:43.739Z,1.00
2022-10-30T14:42:32.708Z,0.82
2022-10-30T14:45:51.156Z,1.05
2022-10-30T14:48:42.136Z,1.10
2022-10-30T14:51:35.616Z,1.05
2022-10-30T14:54:20.710Z,1.10
2022-10-30T14:56:51.888Z,1.25
2022-10-30T14:59:18.612Z,0.90
2022-10-30T15:02:15.507Z,1.10
2022-10-30T15:05:09.770Z,1.13
2022-10-30T15:07:47.832Z,1.10
2022-10-30T15:10:23.312Z,0.80
2022-10-30T15:13:06.368Z,0.90
2022-10-30T15:15:33.667Z,0.70
2022-10-30T15:18:04.647Z,0.85
2022-10-30T15:20:32.846Z,1.00
2022-10-30T15:23:03.843Z,0.90
2022-10-30T15:25:49.458Z,1.30
2022-10-30T15:28:19.440Z,1.00
2022-10-30T15:31:18.572Z,1.27
2022-10-30T15:33:45.381Z,1.80
2022-10-30T15:36:30.386Z,1.52
2022-10-30T15:39:13.224Z,2.00
2022-10-30T15:41:53.969Z,1.70
2022-10-30T15:44:29.180Z,1.50
2022-10-30T15:46:57.042Z,1.45
2022-10-30T15:49:31.330Z,1.30
2022-10-30T15:51:59.485Z,1.10
2022-10-30T15:54:27.616Z,1.38
2022-10-30T15:57:31.322Z,1.17
2022-10-30T15:59:49.979Z,1.42
2022-10-30T16:02:22.877Z,1.30
2022-10-30T16:04:50.217Z,1.30
2022-10-30T16:07:25.027Z,1.35
2022-10-30T16:09:56.779Z,1.40
2022-10-30T16:12:28.155Z,1.80
2022-10-30T16:14:55.916Z,1.50
2022-10-30T16:17:23.742Z,1.38
2022-10-30T16:19:53.296Z,1.38
2022-10-30T16:22:28.661Z,1.50
2022-10-30T16:24:56.948Z,0.93
2022-10-30T16:27:24.735Z,1.20
2022-10-30T16:29:54.263Z,1.10
2022-10-30T16:32:24.154Z,1.73
2022-10-30T16:34:55.550Z,1.40
2022-10-30T16:37:37.182Z,1.48
2022-10-30T16:40:16.704Z,1.33
2022-10-30T16:43:03.493Z,1.40
2022-10-30T16:45:33.922Z,1.23
2022-10-30T16:50:45.161Z,1.48
2022-10-30T16:53:23.976Z,1.20
2022-10-30T16:55:51.679Z,1.40
2022-10-30T16:58:20.082Z,1.30
2022-10-30T17:00:52.921Z,1.17
2022-10-30T17:03:24.920Z,1.60
2022-10-30T17:06:03.166Z,1.90
2022-10-30T17:08:37.405Z,2.15
2022-10-30T17:11:06.410Z,1.40
2022-10-30T17:13:45.984Z,1.20
2022-10-30T17:16:32.945Z,1.23
2022-10-30T17:19:31.813Z,1.30
2022-10-30T17:22:04.283Z,2.30
2022-10-30T17:24:36.271Z,1.38
2022-10-30T17:27:06.304Z,1.58
2022-10-30T17:29:42.049Z,1.30
2022-10-30T17:32:26.228Z,1.10
2022-10-30T17:35:12.713Z,1.10
2022-10-30T17:37:39.426Z,1.20
2022-10-30T17:40:06.459Z,1.20
2022-10-30T17:42:33.837Z,1.48
2022-10-30T17:45:00.627Z,1.83
2022-10-30T17:47:28.246Z,1.25
2022-10-30T17:49:54.929Z,1.00
2022-10-30T17:52:21.801Z,1.27
2022-10-30T17:54:49.171Z,1.17
2022-10-30T17:57:16.628Z,1.27
2022-10-30T17:59:43.668Z,1.25
2022-10-30T18:02:22.358Z,1.27
2022-10-30T18:04:49.738Z,1.13
2022-10-30T18:07:17.043Z,1.23
2022-10-30T18:09:44.222Z,1.27
2022-10-30T18:12:15.905Z,1.35
2022-10-30T18:14:43.221Z,1.25
2022-10-30T18:17:10.436Z,1.30
2022-10-30T18:19:37.322Z,1.00
2022-10-30T18:22:04.162Z,1.50
2022-10-30T18:24:30.928Z,1.83
2022-10-30T18:26:58.477Z,1.40
2022-10-30T18:29:25.288Z,1.50
2022-10-30T18:31:52.034Z,1.13
2022-10-30T18:34:22.073Z,1.30
2022-10-30T18:36:48.899Z,1.15
2022-10-30T18:39:15.606Z,1.15
2022-10-30T18:41:46.459Z,0.93
2022-10-30T18:44:15.322Z,1.50
2022-10-30T18:46:42.281Z,1.08
2022-10-30T18:49:09.063Z,1.30
2022-10-30T18:51:35.777Z,1.73
2022-10-30T18:54:02.825Z,1.67
2022-10-30T18:56:32.322Z,1.60
2022-10-30T18:59:02.335Z,3.42
2022-10-30T19:01:33.035Z,2.20
2022-10-30T19:04:04.433Z,1.55
2022-10-30T19:06:34.031Z,1.88
2022-10-30T19:09:00.713Z,1.40
2022-10-30T19:11:30.263Z,1.85
2022-10-30T19:13:58.276Z,1.75
2022-10-30T19:16:25.385Z,1.63
2022-10-30T19:18:52.333Z,1.70
2022-10-30T19:21:25.887Z,1.52
2022-10-30T19:23:52.931Z,1.67
2022-10-30T19:26:19.733Z,2.15
2022-10-30T19:28:46.446Z,1.52
2022-10-30T19:31:14.456Z,1.30
2022-10-30T19:33:41.429Z,1.55
2022-10-30T19:36:31.841Z,1.50
2022-10-30T19:38:58.647Z,1.58
2022-10-30T19:41:26.354Z,1.65
2022-10-30T19:43:53.916Z,1.92
2022-10-30T19:46:21.100Z,2.42
2022-10-30T19:48:57.404Z,3.50
2022-10-30T19:51:26.094Z,3.92
2022-10-30T19:53:54.115Z,3.58
2022-10-30T19:56:21.332Z,3.22
2022-10-30T19:58:48.178Z,3.00
2022-10-30T20:01:14.998Z,2.90
2022-10-30T20:03:41.831Z,2.90
2022-10-30T20:06:11.813Z,2.70
2022-10-30T20:08:38.602Z,2.35
2022-10-30T20:11:05.455Z,2.20
2022-10-30T20:13:33.421Z,2.08
2022-10-30T20:16:02.543Z,2.28
2022-10-30T20:18:31.478Z,2.15
2022-10-30T20:20:59.942Z,2.30
2022-10-30T20:23:27.105Z,2.90
2022-10-30T20:25:58.659Z,3.28
2022-10-30T20:28:51.883Z,2.50
2022-10-30T20:31:18.692Z,2.58
2022-10-30T20:33:45.877Z,3.10
2022-10-30T20:36:14.129Z,3.30
2022-10-30T20:38:41.068Z,2.65
2022-10-30T20:41:14.860Z,2.22
2022-10-30T20:43:41.543Z,2.50
2022-10-30T20:46:10.085Z,1.88
2022-10-30T20:48:37.918Z,2.05
2022-10-30T20:51:09.781Z,1.98
2022-10-30T20:53:36.459Z,2.15
2022-10-30T20:56:03.796Z,2.20
2022-10-30T20:58:30.606Z,2.00
2022-10-30T21:00:58.600Z,2.42
2022-10-30T21:03:26.240Z,2.47
2022-10-30T21:05:58.116Z,1.92
2022-10-30T21:08:26.105Z,2.10
2022-10-30T21:10:52.834Z,1.70
2022-10-30T21:13:19.577Z,1.70
2022-10-30T21:15:46.362Z,1.80
2022-10-30T21:18:13.310Z,1.70
2022-10-30T21:20:41.203Z,1.65
2022-10-30T21:23:08.212Z,1.58
2022-10-30T21:25:35.714Z,1.75
2022-10-30T21:28:03.278Z,1.80
2022-10-30T21:30:30.285Z,1.77
2022-10-30T21:32:58.489Z,1.67
2022-10-30T21:35:25.509Z,1.80
2022-10-30T21:37:52.223Z,1.90
2022-10-30T21:40:18.972Z,1.58
2022-10-30T21:42:48.146Z,1.92
2022-10-30T21:45:15.115Z,1.58
2022-10-30T21:47:41.809Z,1.70
2022-10-30T21:50:12.182Z,2.15
2022-10-30T21:52:40.200Z,2.05
2022-10-30T21:55:07.398Z,2.05
2022-10-30T21:57:34.294Z,1.52
2022-10-30T22:00:05.450Z,2.10
2022-10-30T22:02:34.256Z,2.28
2022-10-30T22:05:01.067Z,1.88
2022-10-30T22:07:27.864Z,1.90
2022-10-30T22:09:54.542Z,2.10
2022-10-30T22:12:21.272Z,2.05
2022-10-30T22:14:48.001Z,2.10
2022-10-30T22:17:14.691Z,2.00
2022-10-30T22:19:41.361Z,1.85
2022-10-30T22:22:09.106Z,2.00
2022-10-30T22:24:35.886Z,2.20
2022-10-30T22:27:02.728Z,1.90
2022-10-30T22:29:29.449Z,2.25
2022-10-30T22:31:56.315Z,2.05
2022-10-30T22:34:23.000Z,2.40
2022-10-30T22:36:49.754Z,2.15
2022-10-30T22:39:16.453Z,2.20
2022-10-30T22:41:43.158Z,1.83
2022-10-30T22:44:17.355Z,2.28
2022-10-30T22:46:44.352Z,2.63
2022-10-30T22:49:11.605Z,2.20
2022-10-30T22:51:39.416Z,1.88
2022-10-30T22:54:09.718Z,2.30
2022-10-30T22:56:37.208Z,2.10
2022-10-30T22:59:05.975Z,2.10
2022-10-30T23:01:34.501Z,1.63
2022-10-30T23:04:02.553Z,1.88
2022-10-30T23:06:30.339Z,1.80
2022-10-30T23:08:59.193Z,1.88
2022-10-30T23:11:26.584Z,2.08
2022-10-30T23:13:53.709Z,2.00
2022-10-30T23:16:22.507Z,1.80
2022-10-30T23:18:50.254Z,1.70
2022-10-30T23:21:20.524Z,1.88
2022-10-30T23:23:47.768Z,2.20
2022-10-30T23:26:22.943Z,1.83
2022-10-30T23:28:51.667Z,2.05
2022-10-30T23:31:24.885Z,1.98
2022-10-30T23:33:52.974Z,2.10
2022-10-30T23:36:20.206Z,1.80
2022-10-30T23:38:58.019Z,2.05
2022-10-30T23:41:26.889Z,1.83
2022-10-30T23:43:54.795Z,1.98
2022-10-30T23:46:21.669Z,1.73
2022-10-30T23:48:48.544Z,1.85
2022-10-30T23:51:15.256Z,1.95
2022-10-30T23:53:42.259Z,2.10
2022-10-30T23:56:08.973Z,2.03
2022-10-30T23:58:35.859Z,1.77
